sensor_id;sensor_type;location;lat;lon;timestamp;P1;durP1;ratioP1;P2;durP2;ratioP2
63189;SDS011;49286;44.460;26.114;2023-05-27T00:01:22;6.72;;;4.45;;
63189;SDS011;49286;44.460;26.114;2023-05-27T00:03:47;6.75;;;4.40;;
63189;SDS011;49286;44.460;26.114;2023-05-27T00:06:13;7.00;;;4.03;;
63189;SDS011;49286;44.460;26.114;2023-05-27T00:08:38;5.40;;;3.38;;
63189;SDS011;49286;44.460;26.114;2023-05-27T00:11:04;4.45;;;3.20;;
63189;SDS011;49286;44.460;26.114;2023-05-27T00:13:29;5.72;;;3.50;;
63189;SDS011;49286;44.460;26.114;2023-05-27T00:15:55;5.65;;;3.95;;
63189;SDS011;49286;44.460;26.114;2023-05-27T00:18:21;7.55;;;3.92;;
63189;SDS011;49286;44.460;26.114;2023-05-27T00:20:46;7.00;;;3.72;;
63189;SDS011;49286;44.460;26.114;2023-05-27T00:23:13;5.78;;;3.70;;
63189;SDS011;49286;44.460;26.114;2023-05-27T00:25:38;6.68;;;4.13;;
63189;SDS011;49286;44.460;26.114;2023-05-27T00:28:04;6.07;;;4.15;;
63189;SDS011;49286;44.460;26.114;2023-05-27T00:30:29;5.22;;;3.67;;
63189;SDS011;49286;44.460;26.114;2023-05-27T00:32:55;7.18;;;3.80;;
63189;SDS011;49286;44.460;26.114;2023-05-27T00:35:21;7.40;;;3.60;;
63189;SDS011;49286;44.460;26.114;2023-05-27T00:37:46;8.35;;;4.43;;
63189;SDS011;49286;44.460;26.114;2023-05-27T00:40:12;5.03;;;3.50;;
63189;SDS011;49286;44.460;26.114;2023-05-27T00:42:41;9.57;;;4.88;;
63189;SDS011;49286;44.460;26.114;2023-05-27T00:45:07;6.00;;;3.97;;
63189;SDS011;49286;44.460;26.114;2023-05-27T00:47:33;8.07;;;4.13;;
63189;SDS011;49286;44.460;26.114;2023-05-27T00:49:59;5.55;;;4.10;;
63189;SDS011;49286;44.460;26.114;2023-05-27T00:52:26;7.63;;;4.05;;
63189;SDS011;49286;44.460;26.114;2023-05-27T00:54:52;4.80;;;3.10;;
63189;SDS011;49286;44.460;26.114;2023-05-27T00:57:19;6.35;;;4.68;;
63189;SDS011;49286;44.460;26.114;2023-05-27T00:59:45;9.52;;;3.85;;
63189;SDS011;49286;44.460;26.114;2023-05-27T01:02:10;6.38;;;4.10;;
63189;SDS011;49286;44.460;26.114;2023-05-27T01:04:36;6.35;;;4.88;;
63189;SDS011;49286;44.460;26.114;2023-05-27T01:07:18;6.15;;;4.22;;
63189;SDS011;49286;44.460;26.114;2023-05-27T01:10:10;4.43;;;3.38;;
63189;SDS011;49286;44.460;26.114;2023-05-27T01:12:42;5.03;;;3.53;;
63189;SDS011;49286;44.460;26.114;2023-05-27T01:15:14;7.18;;;4.60;;
63189;SDS011;49286;44.460;26.114;2023-05-27T01:17:40;7.88;;;4.22;;
63189;SDS011;49286;44.460;26.114;2023-05-27T01:20:10;5.72;;;3.83;;
63189;SDS011;49286;44.460;26.114;2023-05-27T01:22:36;5.85;;;4.18;;
63189;SDS011;49286;44.460;26.114;2023-05-27T01:25:06;10.20;;;3.97;;
63189;SDS011;49286;44.460;26.114;2023-05-27T01:27:32;8.25;;;4.30;;
63189;SDS011;49286;44.460;26.114;2023-05-27T01:29:58;5.22;;;4.03;;
63189;SDS011;49286;44.460;26.114;2023-05-27T01:35:10;9.45;;;4.75;;
63189;SDS011;49286;44.460;26.114;2023-05-27T01:37:37;7.20;;;4.75;;
63189;SDS011;49286;44.460;26.114;2023-05-27T01:40:08;6.60;;;3.63;;
63189;SDS011;49286;44.460;26.114;2023-05-27T01:42:36;4.70;;;3.53;;
63189;SDS011;49286;44.460;26.114;2023-05-27T01:45:04;6.47;;;4.78;;
63189;SDS011;49286;44.460;26.114;2023-05-27T01:47:31;8.00;;;4.28;;
63189;SDS011;49286;44.460;26.114;2023-05-27T01:49:57;7.65;;;4.03;;
63189;SDS011;49286;44.460;26.114;2023-05-27T01:52:22;8.25;;;4.65;;
63189;SDS011;49286;44.460;26.114;2023-05-27T01:54:48;7.03;;;4.95;;
63189;SDS011;49286;44.460;26.114;2023-05-27T01:57:14;5.70;;;4.38;;
63189;SDS011;49286;44.460;26.114;2023-05-27T01:59:39;5.18;;;3.88;;
63189;SDS011;49286;44.460;26.114;2023-05-27T02:02:05;6.68;;;5.30;;
63189;SDS011;49286;44.460;26.114;2023-05-27T02:04:31;5.30;;;3.55;;
63189;SDS011;49286;44.460;26.114;2023-05-27T02:06:56;8.45;;;5.35;;
63189;SDS011;49286;44.460;26.114;2023-05-27T02:09:22;11.98;;;4.35;;
63189;SDS011;49286;44.460;26.114;2023-05-27T02:11:47;5.20;;;3.75;;
63189;SDS011;49286;44.460;26.114;2023-05-27T02:14:13;10.23;;;3.72;;
63189;SDS011;49286;44.460;26.114;2023-05-27T02:16:39;5.95;;;4.53;;
63189;SDS011;49286;44.460;26.114;2023-05-27T02:19:05;5.13;;;4.13;;
63189;SDS011;49286;44.460;26.114;2023-05-27T02:21:31;5.72;;;3.88;;
63189;SDS011;49286;44.460;26.114;2023-05-27T02:23:57;6.30;;;4.30;;
63189;SDS011;49286;44.460;26.114;2023-05-27T02:26:22;5.97;;;4.00;;
63189;SDS011;49286;44.460;26.114;2023-05-27T02:28:48;6.13;;;4.47;;
63189;SDS011;49286;44.460;26.114;2023-05-27T02:31:14;8.52;;;5.43;;
63189;SDS011;49286;44.460;26.114;2023-05-27T02:33:39;6.65;;;4.57;;
63189;SDS011;49286;44.460;26.114;2023-05-27T02:36:04;8.75;;;3.33;;
63189;SDS011;49286;44.460;26.114;2023-05-27T02:38:31;5.20;;;3.75;;
63189;SDS011;49286;44.460;26.114;2023-05-27T02:40:56;5.78;;;4.35;;
63189;SDS011;49286;44.460;26.114;2023-05-27T02:43:22;5.50;;;4.07;;
63189;SDS011;49286;44.460;26.114;2023-05-27T02:45:47;5.53;;;3.67;;
63189;SDS011;49286;44.460;26.114;2023-05-27T02:48:13;6.30;;;4.20;;
63189;SDS011;49286;44.460;26.114;2023-05-27T02:50:38;5.00;;;3.63;;
63189;SDS011;49286;44.460;26.114;2023-05-27T02:53:04;6.50;;;5.47;;
63189;SDS011;49286;44.460;26.114;2023-05-27T02:55:29;7.15;;;4.70;;
63189;SDS011;49286;44.460;26.114;2023-05-27T02:57:55;7.57;;;4.65;;
63189;SDS011;49286;44.460;26.114;2023-05-27T03:00:20;8.73;;;4.68;;
63189;SDS011;49286;44.460;26.114;2023-05-27T03:02:46;6.30;;;4.60;;
63189;SDS011;49286;44.460;26.114;2023-05-27T03:05:12;7.50;;;4.60;;
63189;SDS011;49286;44.460;26.114;2023-05-27T03:07:38;6.50;;;4.32;;
63189;SDS011;49286;44.460;26.114;2023-05-27T03:10:06;8.98;;;4.70;;
63189;SDS011;49286;44.460;26.114;2023-05-27T03:12:32;8.80;;;5.45;;
63189;SDS011;49286;44.460;26.114;2023-05-27T03:14:58;10.23;;;5.07;;
63189;SDS011;49286;44.460;26.114;2023-05-27T03:17:24;10.05;;;4.60;;
63189;SDS011;49286;44.460;26.114;2023-05-27T03:19:49;7.57;;;4.90;;
63189;SDS011;49286;44.460;26.114;2023-05-27T03:22:15;8.27;;;5.35;;
63189;SDS011;49286;44.460;26.114;2023-05-27T03:24:41;7.82;;;5.63;;
63189;SDS011;49286;44.460;26.114;2023-05-27T03:27:07;6.72;;;5.03;;
63189;SDS011;49286;44.460;26.114;2023-05-27T03:29:32;9.43;;;4.63;;
63189;SDS011;49286;44.460;26.114;2023-05-27T03:31:58;8.38;;;5.35;;
63189;SDS011;49286;44.460;26.114;2023-05-27T03:34:23;7.32;;;5.75;;
63189;SDS011;49286;44.460;26.114;2023-05-27T03:36:49;7.82;;;5.05;;
63189;SDS011;49286;44.460;26.114;2023-05-27T03:39:15;10.23;;;6.28;;
63189;SDS011;49286;44.460;26.114;2023-05-27T03:41:41;8.73;;;6.22;;
63189;SDS011;49286;44.460;26.114;2023-05-27T03:44:07;10.48;;;7.30;;
63189;SDS011;49286;44.460;26.114;2023-05-27T03:46:33;10.52;;;6.60;;
63189;SDS011;49286;44.460;26.114;2023-05-27T03:48:59;8.50;;;6.30;;
63189;SDS011;49286;44.460;26.114;2023-05-27T03:51:25;9.32;;;5.80;;
63189;SDS011;49286;44.460;26.114;2023-05-27T03:53:50;11.52;;;5.82;;
63189;SDS011;49286;44.460;26.114;2023-05-27T03:56:16;13.77;;;7.90;;
63189;SDS011;49286;44.460;26.114;2023-05-27T03:58:42;9.65;;;5.85;;
63189;SDS011;49286;44.460;26.114;2023-05-27T04:01:07;9.90;;;6.40;;
63189;SDS011;49286;44.460;26.114;2023-05-27T04:03:33;6.40;;;5.00;;
63189;SDS011;49286;44.460;26.114;2023-05-27T04:05:59;6.88;;;5.30;;
63189;SDS011;49286;44.460;26.114;2023-05-27T04:08:24;7.93;;;5.50;;
63189;SDS011;49286;44.460;26.114;2023-05-27T04:10:53;14.05;;;5.07;;
63189;SDS011;49286;44.460;26.114;2023-05-27T04:13:19;7.93;;;6.13;;
63189;SDS011;49286;44.460;26.114;2023-05-27T04:15:45;6.32;;;4.38;;
63189;SDS011;49286;44.460;26.114;2023-05-27T04:18:11;8.75;;;6.15;;
63189;SDS011;49286;44.460;26.114;2023-05-27T04:20:37;7.65;;;3.83;;
63189;SDS011;49286;44.460;26.114;2023-05-27T04:23:05;7.97;;;4.97;;
63189;SDS011;49286;44.460;26.114;2023-05-27T04:25:35;7.90;;;5.45;;
63189;SDS011;49286;44.460;26.114;2023-05-27T04:28:01;7.47;;;5.38;;
63189;SDS011;49286;44.460;26.114;2023-05-27T04:30:32;7.15;;;3.95;;
63189;SDS011;49286;44.460;26.114;2023-05-27T04:32:58;5.88;;;4.70;;
63189;SDS011;49286;44.460;26.114;2023-05-27T04:35:25;8.35;;;4.03;;
63189;SDS011;49286;44.460;26.114;2023-05-27T04:37:50;8.23;;;5.25;;
63189;SDS011;49286;44.460;26.114;2023-05-27T04:40:16;10.15;;;5.53;;
63189;SDS011;49286;44.460;26.114;2023-05-27T04:42:42;5.97;;;3.45;;
63189;SDS011;49286;44.460;26.114;2023-05-27T04:45:09;7.32;;;4.22;;
63189;SDS011;49286;44.460;26.114;2023-05-27T04:47:38;6.45;;;4.25;;
63189;SDS011;49286;44.460;26.114;2023-05-27T04:50:06;8.55;;;5.07;;
63189;SDS011;49286;44.460;26.114;2023-05-27T04:52:33;6.97;;;4.05;;
63189;SDS011;49286;44.460;26.114;2023-05-27T04:55:05;6.68;;;3.53;;
63189;SDS011;49286;44.460;26.114;2023-05-27T04:57:32;6.43;;;3.65;;
63189;SDS011;49286;44.460;26.114;2023-05-27T04:59:58;6.75;;;3.72;;
63189;SDS011;49286;44.460;26.114;2023-05-27T05:02:42;9.63;;;4.05;;
63189;SDS011;49286;44.460;26.114;2023-05-27T05:05:11;5.95;;;4.13;;
63189;SDS011;49286;44.460;26.114;2023-05-27T05:07:37;6.75;;;5.18;;
63189;SDS011;49286;44.460;26.114;2023-05-27T05:10:09;5.18;;;3.63;;
63189;SDS011;49286;44.460;26.114;2023-05-27T05:12:35;5.95;;;4.30;;
63189;SDS011;49286;44.460;26.114;2023-05-27T05:15:01;22.13;;;7.25;;
63189;SDS011;49286;44.460;26.114;2023-05-27T05:17:27;18.60;;;8.05;;
63189;SDS011;49286;44.460;26.114;2023-05-27T05:19:53;5.95;;;3.90;;
63189;SDS011;49286;44.460;26.114;2023-05-27T05:22:19;7.07;;;4.07;;
63189;SDS011;49286;44.460;26.114;2023-05-27T05:24:47;6.05;;;4.18;;
63189;SDS011;49286;44.460;26.114;2023-05-27T05:27:13;7.50;;;4.35;;
63189;SDS011;49286;44.460;26.114;2023-05-27T05:29:38;6.82;;;4.50;;
63189;SDS011;49286;44.460;26.114;2023-05-27T05:32:04;7.57;;;5.20;;
63189;SDS011;49286;44.460;26.114;2023-05-27T05:34:30;5.57;;;4.18;;
63189;SDS011;49286;44.460;26.114;2023-05-27T05:36:55;6.57;;;4.25;;
63189;SDS011;49286;44.460;26.114;2023-05-27T05:39:21;5.35;;;3.22;;
63189;SDS011;49286;44.460;26.114;2023-05-27T05:41:47;6.63;;;4.72;;
63189;SDS011;49286;44.460;26.114;2023-05-27T05:44:12;6.32;;;3.80;;
63189;SDS011;49286;44.460;26.114;2023-05-27T05:46:38;6.47;;;3.78;;
63189;SDS011;49286;44.460;26.114;2023-05-27T05:49:04;6.97;;;4.25;;
63189;SDS011;49286;44.460;26.114;2023-05-27T05:51:30;8.23;;;5.07;;
63189;SDS011;49286;44.460;26.114;2023-05-27T05:53:56;8.35;;;6.53;;
63189;SDS011;49286;44.460;26.114;2023-05-27T05:56:23;8.70;;;3.58;;
63189;SDS011;49286;44.460;26.114;2023-05-27T05:58:49;10.23;;;4.22;;
63189;SDS011;49286;44.460;26.114;2023-05-27T06:01:15;5.50;;;3.33;;
63189;SDS011;49286;44.460;26.114;2023-05-27T06:03:41;4.72;;;3.38;;
63189;SDS011;49286;44.460;26.114;2023-05-27T06:06:06;6.32;;;4.43;;
63189;SDS011;49286;44.460;26.114;2023-05-27T06:08:32;5.88;;;3.55;;
63189;SDS011;49286;44.460;26.114;2023-05-27T06:10:57;7.47;;;3.85;;
63189;SDS011;49286;44.460;26.114;2023-05-27T06:13:23;5.30;;;3.33;;
63189;SDS011;49286;44.460;26.114;2023-05-27T06:15:48;9.43;;;3.75;;
63189;SDS011;49286;44.460;26.114;2023-05-27T06:18:14;3.90;;;2.53;;
63189;SDS011;49286;44.460;26.114;2023-05-27T06:20:39;5.97;;;3.72;;
63189;SDS011;49286;44.460;26.114;2023-05-27T06:23:05;6.70;;;3.33;;
63189;SDS011;49286;44.460;26.114;2023-05-27T06:25:31;5.43;;;2.90;;
63189;SDS011;49286;44.460;26.114;2023-05-27T06:27:57;5.28;;;3.65;;
63189;SDS011;49286;44.460;26.114;2023-05-27T06:30:22;5.28;;;2.90;;
63189;SDS011;49286;44.460;26.114;2023-05-27T06:32:48;20.17;;;3.45;;
63189;SDS011;49286;44.460;26.114;2023-05-27T06:35:13;6.78;;;3.40;;
63189;SDS011;49286;44.460;26.114;2023-05-27T06:37:39;8.82;;;4.22;;
63189;SDS011;49286;44.460;26.114;2023-05-27T06:40:04;6.32;;;3.28;;
63189;SDS011;49286;44.460;26.114;2023-05-27T06:42:30;6.97;;;3.75;;
63189;SDS011;49286;44.460;26.114;2023-05-27T06:44:56;6.75;;;3.85;;
63189;SDS011;49286;44.460;26.114;2023-05-27T06:47:21;7.75;;;3.92;;
63189;SDS011;49286;44.460;26.114;2023-05-27T06:49:46;10.70;;;3.95;;
63189;SDS011;49286;44.460;26.114;2023-05-27T06:52:12;5.82;;;2.55;;
63189;SDS011;49286;44.460;26.114;2023-05-27T06:54:37;4.05;;;2.85;;
63189;SDS011;49286;44.460;26.114;2023-05-27T06:57:03;4.90;;;3.00;;
63189;SDS011;49286;44.460;26.114;2023-05-27T06:59:29;6.43;;;2.67;;
63189;SDS011;49286;44.460;26.114;2023-05-27T07:01:54;5.28;;;3.70;;
63189;SDS011;49286;44.460;26.114;2023-05-27T07:04:21;5.50;;;3.08;;
63189;SDS011;49286;44.460;26.114;2023-05-27T07:06:47;4.43;;;2.72;;
63189;SDS011;49286;44.460;26.114;2023-05-27T07:09:12;4.63;;;3.55;;
63189;SDS011;49286;44.460;26.114;2023-05-27T07:11:39;3.65;;;2.72;;
63189;SDS011;49286;44.460;26.114;2023-05-27T07:14:07;11.10;;;4.35;;
63189;SDS011;49286;44.460;26.114;2023-05-27T07:16:34;5.45;;;3.03;;
63189;SDS011;49286;44.460;26.114;2023-05-27T07:19:00;6.30;;;3.20;;
63189;SDS011;49286;44.460;26.114;2023-05-27T07:21:25;7.15;;;4.03;;
63189;SDS011;49286;44.460;26.114;2023-05-27T07:23:51;5.47;;;4.82;;
63189;SDS011;49286;44.460;26.114;2023-05-27T07:26:16;4.35;;;3.38;;
63189;SDS011;49286;44.460;26.114;2023-05-27T07:28:41;4.30;;;2.95;;
63189;SDS011;49286;44.460;26.114;2023-05-27T07:31:07;5.60;;;3.65;;
63189;SDS011;49286;44.460;26.114;2023-05-27T07:33:32;5.28;;;3.13;;
63189;SDS011;49286;44.460;26.114;2023-05-27T07:35:58;6.32;;;3.90;;
63189;SDS011;49286;44.460;26.114;2023-05-27T07:38:23;4.15;;;2.65;;
63189;SDS011;49286;44.460;26.114;2023-05-27T07:40:49;5.82;;;3.33;;
63189;SDS011;49286;44.460;26.114;2023-05-27T07:43:14;6.63;;;3.38;;
63189;SDS011;49286;44.460;26.114;2023-05-27T07:45:40;17.98;;;4.85;;
63189;SDS011;49286;44.460;26.114;2023-05-27T07:48:05;6.40;;;2.97;;
63189;SDS011;49286;44.460;26.114;2023-05-27T07:50:31;4.00;;;2.55;;
63189;SDS011;49286;44.460;26.114;2023-05-27T07:52:56;5.03;;;3.28;;
63189;SDS011;49286;44.460;26.114;2023-05-27T07:55:22;4.80;;;3.40;;
63189;SDS011;49286;44.460;26.114;2023-05-27T07:57:47;7.35;;;2.92;;
63189;SDS011;49286;44.460;26.114;2023-05-27T08:00:13;4.65;;;3.22;;
63189;SDS011;49286;44.460;26.114;2023-05-27T08:02:39;9.07;;;2.53;;
63189;SDS011;49286;44.460;26.114;2023-05-27T08:05:04;5.03;;;3.25;;
63189;SDS011;49286;44.460;26.114;2023-05-27T08:07:30;5.40;;;3.20;;
63189;SDS011;49286;44.460;26.114;2023-05-27T08:09:56;3.75;;;2.33;;
63189;SDS011;49286;44.460;26.114;2023-05-27T08:12:21;6.57;;;3.03;;
63189;SDS011;49286;44.460;26.114;2023-05-27T08:14:48;7.25;;;4.60;;
63189;SDS011;49286;44.460;26.114;2023-05-27T08:17:14;4.45;;;3.35;;
63189;SDS011;49286;44.460;26.114;2023-05-27T08:19:40;6.53;;;3.33;;
63189;SDS011;49286;44.460;26.114;2023-05-27T08:22:05;5.60;;;2.20;;
63189;SDS011;49286;44.460;26.114;2023-05-27T08:24:34;4.15;;;2.88;;
63189;SDS011;49286;44.460;26.114;2023-05-27T08:26:59;4.15;;;2.53;;
63189;SDS011;49286;44.460;26.114;2023-05-27T08:29:25;4.50;;;2.90;;
63189;SDS011;49286;44.460;26.114;2023-05-27T08:31:52;5.03;;;3.15;;
63189;SDS011;49286;44.460;26.114;2023-05-27T08:34:18;5.35;;;3.95;;
63189;SDS011;49286;44.460;26.114;2023-05-27T08:36:44;6.80;;;4.18;;
63189;SDS011;49286;44.460;26.114;2023-05-27T08:39:10;4.78;;;2.70;;
63189;SDS011;49286;44.460;26.114;2023-05-27T08:41:36;4.80;;;3.00;;
63189;SDS011;49286;44.460;26.114;2023-05-27T08:44:02;5.03;;;2.92;;
63189;SDS011;49286;44.460;26.114;2023-05-27T08:46:27;5.18;;;3.10;;
63189;SDS011;49286;44.460;26.114;2023-05-27T08:48:54;4.47;;;2.45;;
63189;SDS011;49286;44.460;26.114;2023-05-27T08:51:23;4.55;;;2.75;;
63189;SDS011;49286;44.460;26.114;2023-05-27T08:53:49;6.50;;;3.05;;
63189;SDS011;49286;44.460;26.114;2023-05-27T08:56:15;4.72;;;3.17;;
63189;SDS011;49286;44.460;26.114;2023-05-27T08:58:44;5.30;;;3.83;;
63189;SDS011;49286;44.460;26.114;2023-05-27T09:01:10;6.88;;;2.88;;
63189;SDS011;49286;44.460;26.114;2023-05-27T09:03:37;7.00;;;2.97;;
63189;SDS011;49286;44.460;26.114;2023-05-27T09:06:03;4.72;;;3.42;;
63189;SDS011;49286;44.460;26.114;2023-05-27T09:08:29;7.38;;;4.20;;
63189;SDS011;49286;44.460;26.114;2023-05-27T09:10:55;6.03;;;4.28;;
63189;SDS011;49286;44.460;26.114;2023-05-27T09:13:27;6.15;;;4.00;;
63189;SDS011;49286;44.460;26.114;2023-05-27T09:16:03;4.32;;;2.90;;
63189;SDS011;49286;44.460;26.114;2023-05-27T09:18:31;3.83;;;2.53;;
63189;SDS011;49286;44.460;26.114;2023-05-27T09:20:58;5.45;;;3.42;;
63189;SDS011;49286;44.460;26.114;2023-05-27T09:23:24;4.72;;;3.03;;
63189;SDS011;49286;44.460;26.114;2023-05-27T09:25:50;4.43;;;2.95;;
63189;SDS011;49286;44.460;26.114;2023-05-27T09:28:23;4.90;;;4.07;;
63189;SDS011;49286;44.460;26.114;2023-05-27T09:33:26;5.15;;;3.35;;
63189;SDS011;49286;44.460;26.114;2023-05-27T09:35:52;3.85;;;2.83;;
63189;SDS011;49286;44.460;26.114;2023-05-27T09:38:17;5.13;;;3.03;;
63189;SDS011;49286;44.460;26.114;2023-05-27T09:40:46;6.70;;;3.50;;
63189;SDS011;49286;44.460;26.114;2023-05-27T09:43:15;3.55;;;2.83;;
63189;SDS011;49286;44.460;26.114;2023-05-27T09:45:43;4.30;;;2.70;;
63189;SDS011;49286;44.460;26.114;2023-05-27T09:48:10;4.82;;;2.50;;
63189;SDS011;49286;44.460;26.114;2023-05-27T09:50:38;6.50;;;2.22;;
63189;SDS011;49286;44.460;26.114;2023-05-27T09:53:04;6.03;;;3.67;;
63189;SDS011;49286;44.460;26.114;2023-05-27T09:55:30;3.83;;;2.75;;
63189;SDS011;49286;44.460;26.114;2023-05-27T09:57:55;6.97;;;3.85;;
63189;SDS011;49286;44.460;26.114;2023-05-27T10:00:21;3.92;;;2.50;;
63189;SDS011;49286;44.460;26.114;2023-05-27T10:02:48;4.32;;;2.50;;
63189;SDS011;49286;44.460;26.114;2023-05-27T10:05:15;4.88;;;2.95;;
63189;SDS011;49286;44.460;26.114;2023-05-27T10:07:42;3.92;;;3.40;;
63189;SDS011;49286;44.460;26.114;2023-05-27T10:10:09;4.45;;;3.47;;
63189;SDS011;49286;44.460;26.114;2023-05-27T10:12:37;5.95;;;3.05;;
63189;SDS011;49286;44.460;26.114;2023-05-27T10:15:04;5.60;;;3.67;;
63189;SDS011;49286;44.460;26.114;2023-05-27T10:17:46;4.05;;;2.50;;
63189;SDS011;49286;44.460;26.114;2023-05-27T10:20:31;4.90;;;3.10;;
63189;SDS011;49286;44.460;26.114;2023-05-27T10:23:12;3.92;;;2.00;;
63189;SDS011;49286;44.460;26.114;2023-05-27T10:25:49;5.03;;;2.75;;
63189;SDS011;49286;44.460;26.114;2023-05-27T10:28:26;6.65;;;3.88;;
63189;SDS011;49286;44.460;26.114;2023-05-27T10:33:54;6.25;;;4.50;;
63189;SDS011;49286;44.460;26.114;2023-05-27T10:36:23;3.88;;;2.88;;
63189;SDS011;49286;44.460;26.114;2023-05-27T10:38:57;4.18;;;3.15;;
63189;SDS011;49286;44.460;26.114;2023-05-27T10:41:37;6.13;;;4.15;;
63189;SDS011;49286;44.460;26.114;2023-05-27T10:44:26;5.93;;;3.40;;
63189;SDS011;49286;44.460;26.114;2023-05-27T10:46:59;8.80;;;3.90;;
63189;SDS011;49286;44.460;26.114;2023-05-27T10:49:25;6.68;;;3.90;;
63189;SDS011;49286;44.460;26.114;2023-05-27T10:51:52;7.20;;;4.40;;
63189;SDS011;49286;44.460;26.114;2023-05-27T10:54:18;4.97;;;3.83;;
63189;SDS011;49286;44.460;26.114;2023-05-27T10:56:50;4.32;;;2.88;;
63189;SDS011;49286;44.460;26.114;2023-05-27T10:59:20;4.28;;;3.22;;
63189;SDS011;49286;44.460;26.114;2023-05-27T11:01:50;5.70;;;3.53;;
63189;SDS011;49286;44.460;26.114;2023-05-27T11:04:17;4.18;;;2.80;;
63189;SDS011;49286;44.460;26.114;2023-05-27T11:06:55;7.18;;;3.17;;
63189;SDS011;49286;44.460;26.114;2023-05-27T11:09:26;5.65;;;3.38;;
63189;SDS011;49286;44.460;26.114;2023-05-27T11:11:56;5.43;;;2.70;;
63189;SDS011;49286;44.460;26.114;2023-05-27T11:14:25;5.78;;;3.63;;
63189;SDS011;49286;44.460;26.114;2023-05-27T11:16:50;4.97;;;3.47;;
63189;SDS011;49286;44.460;26.114;2023-05-27T11:19:17;4.03;;;2.72;;
63189;SDS011;49286;44.460;26.114;2023-05-27T11:21:47;4.32;;;2.90;;
63189;SDS011;49286;44.460;26.114;2023-05-27T11:24:16;6.18;;;2.33;;
63189;SDS011;49286;44.460;26.114;2023-05-27T11:26:43;5.10;;;2.85;;
63189;SDS011;49286;44.460;26.114;2023-05-27T11:29:15;4.20;;;3.20;;
63189;SDS011;49286;44.460;26.114;2023-05-27T11:31:45;6.18;;;2.80;;
63189;SDS011;49286;44.460;26.114;2023-05-27T11:34:12;7.13;;;3.10;;
63189;SDS011;49286;44.460;26.114;2023-05-27T11:36:41;6.35;;;4.10;;
63189;SDS011;49286;44.460;26.114;2023-05-27T11:39:12;4.63;;;3.17;;
63189;SDS011;49286;44.460;26.114;2023-05-27T11:41:47;5.32;;;2.90;;
63189;SDS011;49286;44.460;26.114;2023-05-27T11:44:14;3.05;;;2.05;;
63189;SDS011;49286;44.460;26.114;2023-05-27T11:46:41;6.93;;;4.25;;
63189;SDS011;49286;44.460;26.114;2023-05-27T11:49:08;3.67;;;2.90;;
63189;SDS011;49286;44.460;26.114;2023-05-27T11:51:45;9.32;;;3.03;;
63189;SDS011;49286;44.460;26.114;2023-05-27T11:54:18;5.60;;;4.38;;
63189;SDS011;49286;44.460;26.114;2023-05-27T11:56:45;4.32;;;2.50;;
63189;SDS011;49286;44.460;26.114;2023-05-27T11:59:12;4.50;;;2.55;;
63189;SDS011;49286;44.460;26.114;2023-05-27T12:01:40;2.83;;;1.75;;
63189;SDS011;49286;44.460;26.114;2023-05-27T12:04:06;7.05;;;2.30;;
63189;SDS011;49286;44.460;26.114;2023-05-27T12:06:32;4.93;;;2.28;;
63189;SDS011;49286;44.460;26.114;2023-05-27T12:08:58;2.88;;;1.63;;
63189;SDS011;49286;44.460;26.114;2023-05-27T12:11:23;4.65;;;2.08;;
63189;SDS011;49286;44.460;26.114;2023-05-27T12:13:50;4.00;;;2.25;;
63189;SDS011;49286;44.460;26.114;2023-05-27T12:16:16;6.63;;;2.83;;
63189;SDS011;49286;44.460;26.114;2023-05-27T12:18:42;4.95;;;2.67;;
63189;SDS011;49286;44.460;26.114;2023-05-27T12:21:07;4.68;;;2.92;;
63189;SDS011;49286;44.460;26.114;2023-05-27T12:23:33;3.90;;;2.45;;
63189;SDS011;49286;44.460;26.114;2023-05-27T12:25:59;4.60;;;2.65;;
63189;SDS011;49286;44.460;26.114;2023-05-27T12:28:25;5.75;;;3.70;;
63189;SDS011;49286;44.460;26.114;2023-05-27T12:30:51;5.53;;;3.80;;
63189;SDS011;49286;44.460;26.114;2023-05-27T12:33:16;5.22;;;3.85;;
63189;SDS011;49286;44.460;26.114;2023-05-27T12:35:42;7.82;;;4.13;;
63189;SDS011;49286;44.460;26.114;2023-05-27T12:38:07;6.18;;;3.45;;
63189;SDS011;49286;44.460;26.114;2023-05-27T12:40:33;9.23;;;3.72;;
63189;SDS011;49286;44.460;26.114;2023-05-27T12:42:58;7.28;;;3.75;;
63189;SDS011;49286;44.460;26.114;2023-05-27T12:45:24;7.57;;;4.32;;
63189;SDS011;49286;44.460;26.114;2023-05-27T12:47:54;5.55;;;4.05;;
63189;SDS011;49286;44.460;26.114;2023-05-27T12:50:20;6.88;;;5.03;;
63189;SDS011;49286;44.460;26.114;2023-05-27T12:52:46;8.07;;;4.72;;
63189;SDS011;49286;44.460;26.114;2023-05-27T12:55:16;8.02;;;4.53;;
63189;SDS011;49286;44.460;26.114;2023-05-27T12:57:46;5.22;;;3.60;;
63189;SDS011;49286;44.460;26.114;2023-05-27T13:00:13;6.07;;;4.22;;
63189;SDS011;49286;44.460;26.114;2023-05-27T13:02:39;5.63;;;3.65;;
63189;SDS011;49286;44.460;26.114;2023-05-27T13:05:05;9.38;;;4.72;;
63189;SDS011;49286;44.460;26.114;2023-05-27T13:07:32;7.25;;;4.90;;
63189;SDS011;49286;44.460;26.114;2023-05-27T13:10:01;9.55;;;4.47;;
63189;SDS011;49286;44.460;26.114;2023-05-27T13:12:28;8.27;;;3.50;;
63189;SDS011;49286;44.460;26.114;2023-05-27T13:14:55;7.72;;;4.18;;
63189;SDS011;49286;44.460;26.114;2023-05-27T13:17:22;7.40;;;4.38;;
63189;SDS011;49286;44.460;26.114;2023-05-27T13:19:48;12.65;;;5.43;;
63189;SDS011;49286;44.460;26.114;2023-05-27T13:22:13;6.55;;;5.35;;
63189;SDS011;49286;44.460;26.114;2023-05-27T13:24:40;8.52;;;4.13;;
63189;SDS011;49286;44.460;26.114;2023-05-27T13:27:06;6.25;;;4.18;;
63189;SDS011;49286;44.460;26.114;2023-05-27T13:29:33;7.45;;;4.10;;
63189;SDS011;49286;44.460;26.114;2023-05-27T13:31:59;8.68;;;6.05;;
63189;SDS011;49286;44.460;26.114;2023-05-27T13:34:25;10.15;;;5.32;;
63189;SDS011;49286;44.460;26.114;2023-05-27T13:36:52;6.50;;;4.65;;
63189;SDS011;49286;44.460;26.114;2023-05-27T13:39:18;8.23;;;5.32;;
63189;SDS011;49286;44.460;26.114;2023-05-27T13:41:43;10.63;;;5.85;;
63189;SDS011;49286;44.460;26.114;2023-05-27T13:44:08;9.40;;;4.63;;
63189;SDS011;49286;44.460;26.114;2023-05-27T13:46:34;8.13;;;5.55;;
63189;SDS011;49286;44.460;26.114;2023-05-27T13:48:59;9.02;;;5.05;;
63189;SDS011;49286;44.460;26.114;2023-05-27T13:51:25;7.25;;;4.70;;
63189;SDS011;49286;44.460;26.114;2023-05-27T13:53:50;6.30;;;4.03;;
63189;SDS011;49286;44.460;26.114;2023-05-27T13:56:16;8.57;;;5.20;;
63189;SDS011;49286;44.460;26.114;2023-05-27T13:58:41;8.63;;;5.25;;
63189;SDS011;49286;44.460;26.114;2023-05-27T14:01:07;6.97;;;4.90;;
63189;SDS011;49286;44.460;26.114;2023-05-27T14:03:32;8.05;;;5.85;;
63189;SDS011;49286;44.460;26.114;2023-05-27T14:05:58;7.03;;;4.00;;
63189;SDS011;49286;44.460;26.114;2023-05-27T14:08:23;5.43;;;3.85;;
63189;SDS011;49286;44.460;26.114;2023-05-27T14:10:49;7.70;;;5.13;;
63189;SDS011;49286;44.460;26.114;2023-05-27T14:13:14;5.03;;;3.35;;
63189;SDS011;49286;44.460;26.114;2023-05-27T14:15:40;6.10;;;3.30;;
63189;SDS011;49286;44.460;26.114;2023-05-27T14:18:06;6.85;;;4.30;;
63189;SDS011;49286;44.460;26.114;2023-05-27T14:20:32;15.63;;;4.03;;
63189;SDS011;49286;44.460;26.114;2023-05-27T14:22:58;4.72;;;2.92;;
63189;SDS011;49286;44.460;26.114;2023-05-27T14:25:25;9.85;;;4.50;;
63189;SDS011;49286;44.460;26.114;2023-05-27T14:27:50;10.27;;;4.15;;
63189;SDS011;49286;44.460;26.114;2023-05-27T14:30:16;5.90;;;4.13;;
63189;SDS011;49286;44.460;26.114;2023-05-27T14:32:41;5.43;;;3.65;;
63189;SDS011;49286;44.460;26.114;2023-05-27T14:35:07;5.18;;;3.50;;
63189;SDS011;49286;44.460;26.114;2023-05-27T14:37:33;6.28;;;3.33;;
63189;SDS011;49286;44.460;26.114;2023-05-27T14:39:59;4.25;;;3.13;;